sensor_id;sensor_type;location;lat;lon;timestamp;P1;durP1;ratioP1;P2;durP2;ratioP2
5890;SDS011;2971;52.420;7.080;2023-11-19T00:02:18;24.60;;;18.50;;
5890;SDS011;2971;52.420;7.080;2023-11-19T00:04:44;26.07;;;19.27;;
5890;SDS011;2971;52.420;7.080;2023-11-19T00:07:09;26.20;;;20.07;;
5890;SDS011;2971;52.420;7.080;2023-11-19T00:09:37;25.80;;;20.13;;
5890;SDS011;2971;52.420;7.080;2023-11-19T00:12:06;27.97;;;20.90;;
5890;SDS011;2971;52.420;7.080;2023-11-19T00:14:32;29.20;;;20.87;;
5890;SDS011;2971;52.420;7.080;2023-11-19T00:16:58;29.70;;;20.93;;
5890;SDS011;2971;52.420;7.080;2023-11-19T00:19:23;27.93;;;21.17;;
5890;SDS011;2971;52.420;7.080;2023-11-19T00:21:49;26.63;;;20.30;;
5890;SDS011;2971;52.420;7.080;2023-11-19T00:24:14;25.90;;;19.87;;
5890;SDS011;2971;52.420;7.080;2023-11-19T00:26:41;26.23;;;20.40;;
5890;SDS011;2971;52.420;7.080;2023-11-19T00:29:07;25.40;;;20.20;;
5890;SDS011;2971;52.420;7.080;2023-11-19T00:31:33;26.60;;;19.70;;
5890;SDS011;2971;52.420;7.080;2023-11-19T00:33:58;24.77;;;20.07;;
5890;SDS011;2971;52.420;7.080;2023-11-19T00:36:23;27.73;;;21.23;;
5890;SDS011;2971;52.420;7.080;2023-11-19T00:38:49;26.93;;;21.50;;
5890;SDS011;2971;52.420;7.080;2023-11-19T00:41:15;28.73;;;22.43;;
5890;SDS011;2971;52.420;7.080;2023-11-19T00:43:41;28.53;;;22.10;;
5890;SDS011;2971;52.420;7.080;2023-11-19T00:46:07;30.83;;;23.53;;
5890;SDS011;2971;52.420;7.080;2023-11-19T00:48:32;33.87;;;24.97;;
5890;SDS011;2971;52.420;7.080;2023-11-19T00:50:58;33.33;;;25.33;;
5890;SDS011;2971;52.420;7.080;2023-11-19T00:53:23;38.37;;;26.13;;
5890;SDS011;2971;52.420;7.080;2023-11-19T00:55:48;31.13;;;25.03;;
5890;SDS011;2971;52.420;7.080;2023-11-19T00:58:14;34.77;;;26.57;;
5890;SDS011;2971;52.420;7.080;2023-11-19T01:00:39;36.20;;;28.03;;
5890;SDS011;2971;52.420;7.080;2023-11-19T01:03:05;36.17;;;27.80;;
5890;SDS011;2971;52.420;7.080;2023-11-19T01:05:32;41.50;;;29.00;;
5890;SDS011;2971;52.420;7.080;2023-11-19T01:07:57;39.70;;;28.63;;
5890;SDS011;2971;52.420;7.080;2023-11-19T01:10:23;36.07;;;27.97;;
5890;SDS011;2971;52.420;7.080;2023-11-19T01:12:49;37.43;;;28.07;;
5890;SDS011;2971;52.420;7.080;2023-11-19T01:15:14;36.20;;;28.03;;
5890;SDS011;2971;52.420;7.080;2023-11-19T01:17:40;36.00;;;28.60;;
5890;SDS011;2971;52.420;7.080;2023-11-19T01:20:05;43.97;;;29.33;;
5890;SDS011;2971;52.420;7.080;2023-11-19T01:22:31;42.43;;;29.73;;
5890;SDS011;2971;52.420;7.080;2023-11-19T01:24:57;42.90;;;30.87;;
5890;SDS011;2971;52.420;7.080;2023-11-19T01:27:23;41.43;;;29.53;;
5890;SDS011;2971;52.420;7.080;2023-11-19T01:29:49;46.10;;;31.63;;
5890;SDS011;2971;52.420;7.080;2023-11-19T01:32:15;39.07;;;29.17;;
5890;SDS011;2971;52.420;7.080;2023-11-19T01:34:41;44.97;;;30.70;;
5890;SDS011;2971;52.420;7.080;2023-11-19T01:37:06;43.40;;;31.03;;
5890;SDS011;2971;52.420;7.080;2023-11-19T01:39:34;44.67;;;31.30;;
5890;SDS011;2971;52.420;7.080;2023-11-19T01:41:59;45.00;;;30.50;;
5890;SDS011;2971;52.420;7.080;2023-11-19T01:44:24;43.03;;;31.47;;
5890;SDS011;2971;52.420;7.080;2023-11-19T01:46:50;44.17;;;31.00;;
5890;SDS011;2971;52.420;7.080;2023-11-19T01:49:16;43.87;;;31.80;;
5890;SDS011;2971;52.420;7.080;2023-11-19T01:51:43;44.83;;;31.20;;
5890;SDS011;2971;52.420;7.080;2023-11-19T01:54:08;45.53;;;30.97;;
5890;SDS011;2971;52.420;7.080;2023-11-19T01:56:34;46.90;;;30.67;;
5890;SDS011;2971;52.420;7.080;2023-11-19T01:59:01;45.83;;;31.07;;
5890;SDS011;2971;52.420;7.080;2023-11-19T02:01:27;49.97;;;32.13;;
5890;SDS011;2971;52.420;7.080;2023-11-19T02:03:52;47.67;;;31.40;;
5890;SDS011;2971;52.420;7.080;2023-11-19T02:06:18;44.10;;;31.20;;
5890;SDS011;2971;52.420;7.080;2023-11-19T02:08:45;39.57;;;30.13;;
5890;SDS011;2971;52.420;7.080;2023-11-19T02:11:11;46.33;;;29.93;;
5890;SDS011;2971;52.420;7.080;2023-11-19T02:13:37;41.33;;;29.47;;
5890;SDS011;2971;52.420;7.080;2023-11-19T02:16:03;45.20;;;30.47;;
5890;SDS011;2971;52.420;7.080;2023-11-19T02:18:29;43.53;;;28.57;;
5890;SDS011;2971;52.420;7.080;2023-11-19T02:20:59;39.47;;;28.37;;
5890;SDS011;2971;52.420;7.080;2023-11-19T02:23:26;41.57;;;28.33;;
5890;SDS011;2971;52.420;7.080;2023-11-19T02:26:01;42.70;;;28.67;;
5890;SDS011;2971;52.420;7.080;2023-11-19T02:28:27;43.53;;;27.17;;
5890;SDS011;2971;52.420;7.080;2023-11-19T02:30:53;41.30;;;25.87;;
5890;SDS011;2971;52.420;7.080;2023-11-19T02:33:18;38.90;;;25.43;;
5890;SDS011;2971;52.420;7.080;2023-11-19T02:35:44;43.77;;;25.73;;
5890;SDS011;2971;52.420;7.080;2023-11-19T02:38:09;39.60;;;24.87;;
5890;SDS011;2971;52.420;7.080;2023-11-19T02:40:34;45.57;;;25.13;;
5890;SDS011;2971;52.420;7.080;2023-11-19T02:43:00;42.47;;;24.10;;
5890;SDS011;2971;52.420;7.080;2023-11-19T02:45:26;34.80;;;23.43;;
5890;SDS011;2971;52.420;7.080;2023-11-19T02:47:51;36.37;;;23.97;;
5890;SDS011;2971;52.420;7.080;2023-11-19T02:50:18;36.13;;;23.47;;
5890;SDS011;2971;52.420;7.080;2023-11-19T02:52:50;39.90;;;22.60;;
5890;SDS011;2971;52.420;7.080;2023-11-19T02:55:16;34.10;;;21.80;;
5890;SDS011;2971;52.420;7.080;2023-11-19T02:57:43;37.43;;;22.33;;
5890;SDS011;2971;52.420;7.080;2023-11-19T03:00:15;35.17;;;22.63;;
5890;SDS011;2971;52.420;7.080;2023-11-19T03:02:41;37.47;;;21.97;;
5890;SDS011;2971;52.420;7.080;2023-11-19T03:05:19;38.13;;;20.87;;
5890;SDS011;2971;52.420;7.080;2023-11-19T03:07:44;34.30;;;20.83;;
5890;SDS011;2971;52.420;7.080;2023-11-19T03:10:10;37.93;;;21.00;;
5890;SDS011;2971;52.420;7.080;2023-11-19T03:12:45;37.57;;;20.23;;
5890;SDS011;2971;52.420;7.080;2023-11-19T03:15:11;37.77;;;20.27;;
5890;SDS011;2971;52.420;7.080;2023-11-19T03:17:40;34.17;;;19.43;;
5890;SDS011;2971;52.420;7.080;2023-11-19T03:20:06;34.73;;;19.07;;
5890;SDS011;2971;52.420;7.080;2023-11-19T03:22:34;36.60;;;18.10;;
5890;SDS011;2971;52.420;7.080;2023-11-19T03:25:01;37.37;;;18.40;;
5890;SDS011;2971;52.420;7.080;2023-11-19T03:27:27;38.37;;;18.57;;
5890;SDS011;2971;52.420;7.080;2023-11-19T03:29:52;31.43;;;17.07;;
5890;SDS011;2971;52.420;7.080;2023-11-19T03:32:18;38.03;;;17.83;;
5890;SDS011;2971;52.420;7.080;2023-11-19T03:34:43;29.67;;;15.80;;
5890;SDS011;2971;52.420;7.080;2023-11-19T03:37:09;30.43;;;16.33;;
5890;SDS011;2971;52.420;7.080;2023-11-19T03:39:35;34.23;;;14.57;;
5890;SDS011;2971;52.420;7.080;2023-11-19T03:42:00;29.20;;;14.20;;
5890;SDS011;2971;52.420;7.080;2023-11-19T03:44:26;33.00;;;13.57;;
5890;SDS011;2971;52.420;7.080;2023-11-19T03:46:52;30.80;;;13.13;;
5890;SDS011;2971;52.420;7.080;2023-11-19T03:49:17;31.53;;;11.90;;
5890;SDS011;2971;52.420;7.080;2023-11-19T03:51:43;30.17;;;11.53;;
5890;SDS011;2971;52.420;7.080;2023-11-19T03:54:08;34.73;;;12.03;;
5890;SDS011;2971;52.420;7.080;2023-11-19T03:56:33;27.77;;;10.57;;
5890;SDS011;2971;52.420;7.080;2023-11-19T03:58:59;36.43;;;11.40;;
5890;SDS011;2971;52.420;7.080;2023-11-19T04:01:24;31.60;;;9.83;;
5890;SDS011;2971;52.420;7.080;2023-11-19T04:03:50;30.97;;;10.07;;
5890;SDS011;2971;52.420;7.080;2023-11-19T04:06:15;27.20;;;9.20;;
5890;SDS011;2971;52.420;7.080;2023-11-19T04:08:41;36.17;;;10.00;;
5890;SDS011;2971;52.420;7.080;2023-11-19T04:11:06;42.33;;;10.40;;
5890;SDS011;2971;52.420;7.080;2023-11-19T04:13:33;32.77;;;8.77;;
5890;SDS011;2971;52.420;7.080;2023-11-19T04:15:59;32.13;;;8.87;;
5890;SDS011;2971;52.420;7.080;2023-11-19T04:18:24;29.23;;;8.60;;
5890;SDS011;2971;52.420;7.080;2023-11-19T04:20:50;33.50;;;8.90;;
5890;SDS011;2971;52.420;7.080;2023-11-19T04:23:16;37.30;;;8.83;;
5890;SDS011;2971;52.420;7.080;2023-11-19T04:25:41;35.17;;;8.73;;
5890;SDS011;2971;52.420;7.080;2023-11-19T04:28:07;32.53;;;8.60;;
5890;SDS011;2971;52.420;7.080;2023-11-19T04:30:33;33.13;;;9.00;;
5890;SDS011;2971;52.420;7.080;2023-11-19T04:32:59;31.50;;;8.70;;
5890;SDS011;2971;52.420;7.080;2023-11-19T04:35:24;34.03;;;9.23;;
5890;SDS011;2971;52.420;7.080;2023-11-19T04:37:51;29.47;;;8.20;;
5890;SDS011;2971;52.420;7.080;2023-11-19T04:40:16;38.33;;;9.57;;
5890;SDS011;2971;52.420;7.080;2023-11-19T04:42:43;35.70;;;9.60;;
5890;SDS011;2971;52.420;7.080;2023-11-19T04:45:12;32.43;;;8.30;;
5890;SDS011;2971;52.420;7.080;2023-11-19T04:47:37;32.57;;;9.07;;
5890;SDS011;2971;52.420;7.080;2023-11-19T04:50:03;36.13;;;9.30;;
5890;SDS011;2971;52.420;7.080;2023-11-19T04:52:28;33.80;;;8.77;;
5890;SDS011;2971;52.420;7.080;2023-11-19T04:54:54;39.37;;;9.43;;
5890;SDS011;2971;52.420;7.080;2023-11-19T04:57:19;35.23;;;9.03;;
5890;SDS011;2971;52.420;7.080;2023-11-19T04:59:45;34.27;;;8.27;;
5890;SDS011;2971;52.420;7.080;2023-11-19T05:02:10;36.53;;;8.93;;
5890;SDS011;2971;52.420;7.080;2023-11-19T05:04:36;36.07;;;9.70;;
5890;SDS011;2971;52.420;7.080;2023-11-19T05:07:02;40.90;;;8.97;;
5890;SDS011;2971;52.420;7.080;2023-11-19T05:09:30;36.27;;;8.67;;
5890;SDS011;2971;52.420;7.080;2023-11-19T05:11:56;36.83;;;9.47;;
5890;SDS011;2971;52.420;7.080;2023-11-19T05:14:21;35.90;;;8.63;;
5890;SDS011;2971;52.420;7.080;2023-11-19T05:16:47;32.90;;;8.73;;
5890;SDS011;2971;52.420;7.080;2023-11-19T05:19:12;36.40;;;8.80;;
5890;SDS011;2971;52.420;7.080;2023-11-19T05:21:41;37.40;;;9.20;;
5890;SDS011;2971;52.420;7.080;2023-11-19T05:24:07;41.57;;;9.10;;
5890;SDS011;2971;52.420;7.080;2023-11-19T05:26:33;38.07;;;9.00;;
5890;SDS011;2971;52.420;7.080;2023-11-19T05:28:58;39.43;;;8.53;;
5890;SDS011;2971;52.420;7.080;2023-11-19T05:31:24;41.47;;;9.40;;
5890;SDS011;2971;52.420;7.080;2023-11-19T05:33:49;38.53;;;9.03;;
5890;SDS011;2971;52.420;7.080;2023-11-19T05:36:15;41.10;;;9.13;;
5890;SDS011;2971;52.420;7.080;2023-11-19T05:38:40;41.10;;;9.17;;
5890;SDS011;2971;52.420;7.080;2023-11-19T05:41:06;40.77;;;9.10;;
5890;SDS011;2971;52.420;7.080;2023-11-19T05:43:32;42.30;;;9.57;;
5890;SDS011;2971;52.420;7.080;2023-11-19T05:45:58;35.33;;;9.30;;
5890;SDS011;2971;52.420;7.080;2023-11-19T05:48:25;38.17;;;9.43;;
5890;SDS011;2971;52.420;7.080;2023-11-19T05:50:51;46.10;;;9.60;;
5890;SDS011;2971;52.420;7.080;2023-11-19T05:53:16;40.40;;;9.27;;
5890;SDS011;2971;52.420;7.080;2023-11-19T05:55:42;42.90;;;9.07;;
5890;SDS011;2971;52.420;7.080;2023-11-19T05:58:14;38.47;;;9.30;;
5890;SDS011;2971;52.420;7.080;2023-11-19T06:00:40;38.10;;;9.70;;
5890;SDS011;2971;52.420;7.080;2023-11-19T06:03:09;41.83;;;9.60;;
5890;SDS011;2971;52.420;7.080;2023-11-19T06:05:35;37.20;;;9.50;;
5890;SDS011;2971;52.420;7.080;2023-11-19T06:08:00;38.53;;;9.90;;
5890;SDS011;2971;52.420;7.080;2023-11-19T06:10:25;49.73;;;9.53;;
5890;SDS011;2971;52.420;7.080;2023-11-19T06:12:57;46.73;;;9.37;;
5890;SDS011;2971;52.420;7.080;2023-11-19T06:15:28;41.93;;;10.03;;
5890;SDS011;2971;52.420;7.080;2023-11-19T06:17:53;40.50;;;9.87;;
5890;SDS011;2971;52.420;7.080;2023-11-19T06:20:20;42.00;;;9.90;;
5890;SDS011;2971;52.420;7.080;2023-11-19T06:22:45;42.47;;;10.30;;
5890;SDS011;2971;52.420;7.080;2023-11-19T06:25:11;43.77;;;9.50;;
5890;SDS011;2971;52.420;7.080;2023-11-19T06:27:39;37.60;;;9.17;;
5890;SDS011;2971;52.420;7.080;2023-11-19T06:30:05;42.87;;;10.40;;
5890;SDS011;2971;52.420;7.080;2023-11-19T06:32:31;44.03;;;10.40;;
5890;SDS011;2971;52.420;7.080;2023-11-19T06:34:57;43.53;;;9.40;;
5890;SDS011;2971;52.420;7.080;2023-11-19T06:37:23;44.87;;;9.93;;
5890;SDS011;2971;52.420;7.080;2023-11-19T06:39:48;50.17;;;10.70;;
5890;SDS011;2971;52.420;7.080;2023-11-19T06:42:14;38.03;;;9.33;;
5890;SDS011;2971;52.420;7.080;2023-11-19T06:44:39;41.43;;;10.17;;
5890;SDS011;2971;52.420;7.080;2023-11-19T06:47:04;45.43;;;9.90;;
5890;SDS011;2971;52.420;7.080;2023-11-19T06:49:30;42.67;;;10.67;;
5890;SDS011;2971;52.420;7.080;2023-11-19T06:51:55;40.90;;;9.57;;
5890;SDS011;2971;52.420;7.080;2023-11-19T06:54:21;42.93;;;9.80;;
5890;SDS011;2971;52.420;7.080;2023-11-19T06:56:47;40.63;;;9.40;;
5890;SDS011;2971;52.420;7.080;2023-11-19T06:59:13;42.10;;;10.17;;
5890;SDS011;2971;52.420;7.080;2023-11-19T07:01:39;42.87;;;9.20;;
5890;SDS011;2971;52.420;7.080;2023-11-19T07:04:04;45.50;;;9.57;;
5890;SDS011;2971;52.420;7.080;2023-11-19T07:06:34;38.03;;;9.87;;
5890;SDS011;2971;52.420;7.080;2023-11-19T07:09:00;47.83;;;10.20;;
5890;SDS011;2971;52.420;7.080;2023-11-19T07:11:34;44.07;;;9.73;;
5890;SDS011;2971;52.420;7.080;2023-11-19T07:14:01;38.93;;;9.07;;
5890;SDS011;2971;52.420;7.080;2023-11-19T07:16:27;42.60;;;9.60;;
5890;SDS011;2971;52.420;7.080;2023-11-19T07:18:52;47.43;;;9.10;;
5890;SDS011;2971;52.420;7.080;2023-11-19T07:21:17;48.87;;;10.03;;
5890;SDS011;2971;52.420;7.080;2023-11-19T07:23:43;41.07;;;8.60;;
5890;SDS011;2971;52.420;7.080;2023-11-19T07:26:08;44.70;;;10.47;;
5890;SDS011;2971;52.420;7.080;2023-11-19T07:28:34;42.43;;;8.87;;
5890;SDS011;2971;52.420;7.080;2023-11-19T07:30:59;43.93;;;9.67;;
5890;SDS011;2971;52.420;7.080;2023-11-19T07:33:25;44.00;;;9.73;;
5890;SDS011;2971;52.420;7.080;2023-11-19T07:35:50;38.10;;;9.70;;
5890;SDS011;2971;52.420;7.080;2023-11-19T07:38:16;41.30;;;9.60;;
5890;SDS011;2971;52.420;7.080;2023-11-19T07:40:41;38.10;;;9.97;;
5890;SDS011;2971;52.420;7.080;2023-11-19T07:43:06;38.07;;;9.10;;
5890;SDS011;2971;52.420;7.080;2023-11-19T07:45:32;47.27;;;10.03;;
5890;SDS011;2971;52.420;7.080;2023-11-19T07:47:58;39.83;;;9.73;;
5890;SDS011;2971;52.420;7.080;2023-11-19T07:50:23;43.40;;;9.80;;
5890;SDS011;2971;52.420;7.080;2023-11-19T07:52:50;38.03;;;9.23;;
5890;SDS011;2971;52.420;7.080;2023-11-19T07:55:15;46.00;;;9.87;;
5890;SDS011;2971;52.420;7.080;2023-11-19T07:57:41;42.97;;;9.63;;
5890;SDS011;2971;52.420;7.080;2023-11-19T08:00:06;34.93;;;9.10;;
5890;SDS011;2971;52.420;7.080;2023-11-19T08:02:32;38.80;;;9.43;;
5890;SDS011;2971;52.420;7.080;2023-11-19T08:04:58;43.00;;;9.60;;
5890;SDS011;2971;52.420;7.080;2023-11-19T08:07:23;39.40;;;9.20;;
5890;SDS011;2971;52.420;7.080;2023-11-19T08:09:49;45.43;;;10.10;;
5890;SDS011;2971;52.420;7.080;2023-11-19T08:12:14;42.60;;;9.50;;
5890;SDS011;2971;52.420;7.080;2023-11-19T08:14:41;43.77;;;10.20;;
5890;SDS011;2971;52.420;7.080;2023-11-19T08:17:06;45.93;;;10.97;;
5890;SDS011;2971;52.420;7.080;2023-11-19T08:19:32;41.40;;;9.23;;
5890;SDS011;2971;52.420;7.080;2023-11-19T08:21:57;36.03;;;9.37;;
5890;SDS011;2971;52.420;7.080;2023-11-19T08:24:22;40.20;;;9.57;;
5890;SDS011;2971;52.420;7.080;2023-11-19T08:26:48;40.03;;;10.30;;
5890;SDS011;2971;52.420;7.080;2023-11-19T08:29:13;41.40;;;10.17;;
5890;SDS011;2971;52.420;7.080;2023-11-19T08:31:39;45.47;;;9.70;;
5890;SDS011;2971;52.420;7.080;2023-11-19T08:34:05;36.40;;;9.23;;
5890;SDS011;2971;52.420;7.080;2023-11-19T08:36:33;44.20;;;9.63;;
5890;SDS011;2971;52.420;7.080;2023-11-19T08:38:59;45.47;;;10.03;;
5890;SDS011;2971;52.420;7.080;2023-11-19T08:41:24;47.93;;;10.50;;
5890;SDS011;2971;52.420;7.080;2023-11-19T08:43:50;40.30;;;9.83;;
5890;SDS011;2971;52.420;7.080;2023-11-19T08:46:16;36.37;;;8.57;;
5890;SDS011;2971;52.420;7.080;2023-11-19T08:48:42;43.30;;;10.67;;
5890;SDS011;2971;52.420;7.080;2023-11-19T08:51:07;43.23;;;9.30;;
5890;SDS011;2971;52.420;7.080;2023-11-19T08:53:33;42.77;;;9.00;;
5890;SDS011;2971;52.420;7.080;2023-11-19T08:55:58;43.30;;;10.60;;
5890;SDS011;2971;52.420;7.080;2023-11-19T08:58:24;36.60;;;9.20;;
5890;SDS011;2971;52.420;7.080;2023-11-19T09:00:49;40.20;;;9.77;;
5890;SDS011;2971;52.420;7.080;2023-11-19T09:03:14;43.30;;;9.77;;
5890;SDS011;2971;52.420;7.080;2023-11-19T09:05:40;38.13;;;8.80;;
5890;SDS011;2971;52.420;7.080;2023-11-19T09:08:06;38.70;;;9.67;;
5890;SDS011;2971;52.420;7.080;2023-11-19T09:10:31;37.57;;;8.83;;
5890;SDS011;2971;52.420;7.080;2023-11-19T09:12:57;45.10;;;9.90;;
5890;SDS011;2971;52.420;7.080;2023-11-19T09:15:22;37.40;;;9.00;;
5890;SDS011;2971;52.420;7.080;2023-11-19T09:17:48;43.60;;;9.70;;
5890;SDS011;2971;52.420;7.080;2023-11-19T09:20:13;37.73;;;9.40;;
5890;SDS011;2971;52.420;7.080;2023-11-19T09:22:40;44.97;;;9.90;;
5890;SDS011;2971;52.420;7.080;2023-11-19T09:25:06;38.07;;;8.80;;
5890;SDS011;2971;52.420;7.080;2023-11-19T09:27:32;42.17;;;9.53;;
5890;SDS011;2971;52.420;7.080;2023-11-19T09:29:57;41.67;;;9.03;;
5890;SDS011;2971;52.420;7.080;2023-11-19T09:32:23;39.40;;;9.23;;
5890;SDS011;2971;52.420;7.080;2023-11-19T09:34:49;38.47;;;8.60;;
5890;SDS011;2971;52.420;7.080;2023-11-19T09:37:15;34.97;;;9.33;;
5890;SDS011;2971;52.420;7.080;2023-11-19T09:39:40;39.53;;;9.17;;
5890;SDS011;2971;52.420;7.080;2023-11-19T09:42:08;34.53;;;8.63;;
5890;SDS011;2971;52.420;7.080;2023-11-19T09:44:34;35.90;;;8.83;;
5890;SDS011;2971;52.420;7.080;2023-11-19T09:47:01;39.00;;;8.60;;
5890;SDS011;2971;52.420;7.080;2023-11-19T09:49:27;43.80;;;9.23;;
5890;SDS011;2971;52.420;7.080;2023-11-19T09:51:53;40.57;;;9.30;;
5890;SDS011;2971;52.420;7.080;2023-11-19T09:54:18;37.40;;;8.73;;
5890;SDS011;2971;52.420;7.080;2023-11-19T09:56:44;35.17;;;9.00;;
5890;SDS011;2971;52.420;7.080;2023-11-19T09:59:09;38.83;;;9.47;;
5890;SDS011;2971;52.420;7.080;2023-11-19T10:01:36;35.40;;;8.87;;
5890;SDS011;2971;52.420;7.080;2023-11-19T10:04:03;35.73;;;8.37;;
5890;SDS011;2971;52.420;7.080;2023-11-19T10:06:28;38.43;;;8.20;;
5890;SDS011;2971;52.420;7.080;2023-11-19T10:08:54;38.70;;;9.03;;
5890;SDS011;2971;52.420;7.080;2023-11-19T10:11:20;35.27;;;7.80;;
5890;SDS011;2971;52.420;7.080;2023-11-19T10:13:45;38.63;;;9.67;;
5890;SDS011;2971;52.420;7.080;2023-11-19T10:16:13;38.33;;;8.60;;
5890;SDS011;2971;52.420;7.080;2023-11-19T10:18:48;36.97;;;8.43;;
5890;SDS011;2971;52.420;7.080;2023-11-19T10:21:16;38.97;;;8.87;;
5890;SDS011;2971;52.420;7.080;2023-11-19T10:23:49;35.27;;;8.73;;
5890;SDS011;2971;52.420;7.080;2023-11-19T10:26:19;34.27;;;8.20;;
5890;SDS011;2971;52.420;7.080;2023-11-19T10:28:45;32.30;;;8.43;;
5890;SDS011;2971;52.420;7.080;2023-11-19T10:31:15;34.70;;;8.67;;
5890;SDS011;2971;52.420;7.080;2023-11-19T10:33:41;40.17;;;8.47;;
5890;SDS011;2971;52.420;7.080;2023-11-19T10:36:09;32.23;;;8.00;;
5890;SDS011;2971;52.420;7.080;2023-11-19T10:38:37;34.90;;;7.77;;
5890;SDS011;2971;52.420;7.080;2023-11-19T10:41:03;38.20;;;9.13;;
5890;SDS011;2971;52.420;7.080;2023-11-19T10:43:30;41.27;;;9.57;;
5890;SDS011;2971;52.420;7.080;2023-11-19T10:46:09;31.90;;;8.17;;
5890;SDS011;2971;52.420;7.080;2023-11-19T10:48:35;38.87;;;8.73;;
5890;SDS011;2971;52.420;7.080;2023-11-19T10:51:01;40.80;;;8.97;;
5890;SDS011;2971;52.420;7.080;2023-11-19T10:53:33;40.93;;;8.50;;
5890;SDS011;2971;52.420;7.080;2023-11-19T10:56:01;32.20;;;8.27;;
5890;SDS011;2971;52.420;7.080;2023-11-19T10:58:27;42.53;;;9.03;;
5890;SDS011;2971;52.420;7.080;2023-11-19T11:00:55;31.43;;;8.10;;
5890;SDS011;2971;52.420;7.080;2023-11-19T11:03:22;36.40;;;8.77;;
5890;SDS011;2971;52.420;7.080;2023-11-19T11:05:51;37.20;;;8.23;;
5890;SDS011;2971;52.420;7.080;2023-11-19T11:08:17;32.90;;;8.93;;
5890;SDS011;2971;52.420;7.080;2023-11-19T11:10:45;29.33;;;9.00;;
5890;SDS011;2971;52.420;7.080;2023-11-19T11:13:16;42.40;;;8.80;;
5890;SDS011;2971;52.420;7.080;2023-11-19T11:15:42;33.70;;;8.03;;
5890;SDS011;2971;52.420;7.080;2023-11-19T11:18:08;34.40;;;8.13;;
5890;SDS011;2971;52.420;7.080;2023-11-19T11:20:34;30.83;;;7.93;;
5890;SDS011;2971;52.420;7.080;2023-11-19T11:28:41;34.23;;;8.43;;
5890;SDS011;2971;52.420;7.080;2023-11-19T11:31:26;37.77;;;8.93;;
5890;SDS011;2971;52.420;7.080;2023-11-19T11:34:16;32.93;;;8.07;;
5890;SDS011;2971;52.420;7.080;2023-11-19T11:37:06;32.07;;;8.93;;
5890;SDS011;2971;52.420;7.080;2023-11-19T11:39:39;40.50;;;9.33;;
5890;SDS011;2971;52.420;7.080;2023-11-19T11:50:08;38.13;;;8.80;;
5890;SDS011;2971;52.420;7.080;2023-11-19T11:52:41;35.57;;;8.43;;
5890;SDS011;2971;52.420;7.080;2023-11-19T11:58:01;34.77;;;8.47;;
5890;SDS011;2971;52.420;7.080;2023-11-19T12:00:29;34.10;;;8.37;;
5890;SDS011;2971;52.420;7.080;2023-11-19T12:02:55;36.80;;;9.00;;
5890;SDS011;2971;52.420;7.080;2023-11-19T12:05:21;34.90;;;8.73;;
5890;SDS011;2971;52.420;7.080;2023-11-19T12:07:57;36.20;;;9.30;;
5890;SDS011;2971;52.420;7.080;2023-11-19T12:10:26;39.83;;;9.00;;
5890;SDS011;2971;52.420;7.080;2023-11-19T12:12:58;33.97;;;8.63;;
5890;SDS011;2971;52.420;7.080;2023-11-19T12:15:25;36.80;;;9.80;;
5890;SDS011;2971;52.420;7.080;2023-11-19T12:17:52;36.03;;;8.40;;
5890;SDS011;2971;52.420;7.080;2023-11-19T12:20:28;34.77;;;8.17;;
5890;SDS011;2971;52.420;7.080;2023-11-19T12:23:00;34.20;;;8.87;;
5890;SDS011;2971;52.420;7.080;2023-11-19T12:25:30;32.43;;;8.13;;
5890;SDS011;2971;52.420;7.080;2023-11-19T12:27:59;36.13;;;8.57;;
5890;SDS011;2971;52.420;7.080;2023-11-19T12:30:29;32.67;;;7.90;;
5890;SDS011;2971;52.420;7.080;2023-11-19T12:32:55;37.67;;;9.13;;
5890;SDS011;2971;52.420;7.080;2023-11-19T12:35:21;28.40;;;7.67;;
5890;SDS011;2971;52.420;7.080;2023-11-19T12:37:47;28.40;;;8.17;;
5890;SDS011;2971;52.420;7.080;2023-11-19T12:40:20;36.37;;;7.77;;
5890;SDS011;2971;52.420;7.080;2023-11-19T12:42:49;34.50;;;8.27;;
5890;SDS011;2971;52.420;7.080;2023-11-19T12:45:16;33.93;;;8.00;;
5890;SDS011;2971;52.420;7.080;2023-11-19T12:47:42;32.07;;;7.33;;
5890;SDS011;2971;52.420;7.080;2023-11-19T12:50:09;34.83;;;7.97;;
5890;SDS011;2971;52.420;7.080;2023-11-19T12:52:35;34.57;;;7.73;;
5890;SDS011;2971;52.420;7.080;2023-11-19T12:55:01;34.23;;;8.10;;
5890;SDS011;2971;52.420;7.080;2023-11-19T12:57:37;30.07;;;7.97;;
5890;SDS011;2971;52.420;7.080;2023-11-19T13:00:06;27.10;;;7.20;;
5890;SDS011;2971;52.420;7.080;2023-11-19T13:02:47;24.07;;;5.97;;
5890;SDS011;2971;52.420;7.080;2023-11-19T13:05:47;27.73;;;7.43;;
5890;SDS011;2971;52.420;7.080;2023-11-19T13:08:06;25.47;;;6.73;;
5890;SDS011;2971;52.420;7.080;2023-11-19T13:10:33;25.70;;;6.67;;
5890;SDS011;2971;52.420;7.080;2023-11-19T13:13:03;28.70;;;7.00;;
5890;SDS011;2971;52.420;7.080;2023-11-19T13:15:29;25.00;;;6.90;;
5890;SDS011;2971;52.420;7.080;2023-11-19T13:17:54;28.83;;;6.83;;
5890;SDS011;2971;52.420;7.080;2023-11-19T13:20:20;25.30;;;6.73;;
5890;SDS011;2971;52.420;7.080;2023-11-19T13:22:56;31.53;;;7.47;;
5890;SDS011;2971;52.420;7.080;2023-11-19T13:25:22;23.37;;;6.60;;
5890;SDS011;2971;52.420;7.080;2023-11-19T13:27:47;27.73;;;7.50;;
5890;SDS011;2971;52.420;7.080;2023-11-19T13:30:13;26.17;;;7.53;;
5890;SDS011;2971;52.420;7.080;2023-11-19T13:32:39;31.10;;;7.77;;
5890;SDS011;2971;52.420;7.080;2023-11-19T13:35:04;25.97;;;6.70;;
5890;SDS011;2971;52.420;7.080;2023-11-19T13:37:30;27.50;;;7.13;;
5890;SDS011;2971;52.420;7.080;2023-11-19T13:39:56;27.80;;;7.00;;
5890;SDS011;2971;52.420;7.080;2023-11-19T13:42:21;30.80;;;7.20;;
5890;SDS011;2971;52.420;7.080;2023-11-19T13:44:46;29.67;;;7.37;;
5890;SDS011;2971;52.420;7.080;2023-11-19T13:47:12;30.27;;;6.63;;
5890;SDS011;2971;52.420;7.080;2023-11-19T13:49:39;31.23;;;7.97;;
5890;SDS011;2971;52.420;7.080;2023-11-19T13:52:04;32.73;;;7.97;;
5890;SDS011;2971;52.420;7.080;2023-11-19T13:54:30;31.13;;;8.03;;
5890;SDS011;2971;52.420;7.080;2023-11-19T13:56:56;23.43;;;6.37;;
5890;SDS011;2971;52.420;7.080;2023-11-19T13:59:23;29.17;;;7.33;;
5890;SDS011;2971;52.420;7.080;2023-11-19T14:01:48;29.83;;;7.30;;
5890;SDS011;2971;52.420;7.080;2023-11-19T14:04:14;31.30;;;7.47;;
5890;SDS011;2971;52.420;7.080;2023-11-19T14:06:40;30.87;;;7.87;;
5890;SDS011;2971;52.420;7.080;2023-11-19T14:09:06;28.10;;;7.53;;
5890;SDS011;2971;52.420;7.080;2023-11-19T14:11:32;25.60;;;6.80;;
5890;SDS011;2971;52.420;7.080;2023-11-19T14:13:58;26.50;;;6.43;;
5890;SDS011;2971;52.420;7.080;2023-11-19T14:16:26;26.90;;;6.73;;
5890;SDS011;2971;52.420;7.080;2023-11-19T14:18:52;25.43;;;6.30;;
5890;SDS011;2971;52.420;7.080;2023-11-19T14:21:18;26.67;;;7.40;;
5890;SDS011;2971;52.420;7.080;2023-11-19T14:23:43;27.73;;;6.43;;
5890;SDS011;2971;52.420;7.080;2023-11-19T14:26:09;28.43;;;7.00;;
5890;SDS011;2971;52.420;7.080;2023-11-19T14:28:35;28.93;;;6.47;;
5890;SDS011;2971;52.420;7.080;2023-11-19T14:31:00;23.83;;;6.40;;
5890;SDS011;2971;52.420;7.080;2023-11-19T14:33:25;25.97;;;6.17;;
5890;SDS011;2971;52.420;7.080;2023-11-19T14:35:51;25.63;;;6.37;;
5890;SDS011;2971;52.420;7.080;2023-11-19T14:38:17;28.03;;;6.90;;
5890;SDS011;2971;52.420;7.080;2023-11-19T14:40:42;28.80;;;7.03;;
5890;SDS011;2971;52.420;7.080;2023-11-19T14:43:08;27.20;;;6.90;;
5890;SDS011;2971;52.420;7.080;2023-11-19T14:45:36;28.93;;;7.07;;
5890;SDS011;2971;52.420;7.080;2023-11-19T14:48:02;30.90;;;7.37;;
5890;SDS011;2971;52.420;7.080;2023-11-19T14:50:27;29.20;;;7.57;;
5890;SDS011;2971;52.420;7.080;2023-11-19T14:52:53;27.30;;;8.03;;
5890;SDS011;2971;52.420;7.080;2023-11-19T14:55:18;32.47;;;7.97;;
5890;SDS011;2971;52.420;7.080;2023-11-19T14:57:44;32.17;;;7.80;;
5890;SDS011;2971;52.420;7.080;2023-11-19T15:00:10;28.30;;;7.37;;
5890;SDS011;2971;52.420;7.080;2023-11-19T15:02:39;34.37;;;7.40;;
5890;SDS011;2971;52.420;7.080;2023-11-19T15:05:06;31.90;;;8.33;;
5890;SDS011;2971;52.420;7.080;2023-11-19T15:07:34;27.93;;;7.10;;
5890;SDS011;2971;52.420;7.080;2023-11-19T15:10:00;26.67;;;7.03;;
5890;SDS011;2971;52.420;7.080;2023-11-19T15:12:30;30.97;;;7.17;;